< < Back
Terminal Aerodrome Forecast


Current Version              Previous Versions:   1  2  3  4  5  6  7  8  9  

Terminal Aerodrome Forecast

591
FTUS44 KMOB 222300
TAFPNS
TAF
KPNS 222333Z 2300/2324 03011KT P6SM SKC
     FM231200 01005KT P6SM SKC=



Latest METAR

557
SAUS70 KWBC 231758
MTRPNS
METAR KPNS 231753Z 04007KT 350V080 10SM OVC014 22/18 A3010 RMK AO2
SLP194 T02170178 10217 20156 58003


USA.gov is the U.S. government's official web portal to all federal, state and local government web resources and services.